This is the latest recevied weather packets stored in our database for station/object SQ9PDE-13. If no packets are shown the sender has not sent any weather packets the latest 10 day(s).
| Time | Temp. | Humidity | Pressure | Rain* | Wind** | Luminosity | Snow |
|---|---|---|---|---|---|---|---|
| 1788201394 | 19.44° C | 77% | 1016.8 hPa | - | - | - | - |
| 1788201094 | 20° C | 75% | 1016.8 hPa | - | - | - | - |
| 1788200793 | 20° C | 74% | 1016.7 hPa | - | - | - | - |
| 1788200492 | 20.56° C | 73% | 1016.6 hPa | - | - | - | - |
| 1788200192 | 20.56° C | 72% | 1016.5 hPa | - | - | - | - |
| 1788199891 | 20.56° C | 73% | 1016.4 hPa | - | - | - | - |
| 1788199591 | 21.11° C | 70% | 1016.2 hPa | - | - | - | - |
| 1788199290 | 21.11° C | 70% | 1016.2 hPa | - | - | - | - |
| 1788198990 | 21.11° C | 69% | 1016 hPa | - | - | - | - |
| 1788198689 | 21.11° C | 70% | 1016 hPa | - | - | - | - |
| 1788198389 | 21.11° C | 70% | 1015.9 hPa | - | - | - | - |
| 1788198088 | 21.67° C | 70% | 1015.8 hPa | - | - | - | - |
| 1788197788 | 21.67° C | 70% | 1015.8 hPa | - | - | - | - |
| 1788197487 | 21.67° C | 70% | 1015.7 hPa | - | - | - | - |
| 1788197187 | 21.67° C | 70% | 1015.6 hPa | - | - | - | - |
| 1788196886 | 22.22° C | 69% | 1015.6 hPa | - | - | - | - |
| 1788196586 | 22.22° C | 69% | 1015.5 hPa | - | - | - | - |
| 1788196285 | 22.22° C | 68% | 1015.4 hPa | - | - | - | - |
| 1788196221 | 22.22° C | 68% | 1015.4 hPa | - | - | - | - |
| 1788195920 | 22.22° C | 68% | 1015.5 hPa | - | - | - | - |
| 1788195620 | 22.22° C | 68% | 1015.4 hPa | - | - | - | - |
| 1788195319 | 22.22° C | 68% | 1015.4 hPa | - | - | - | - |
| 1788195082 | 22.22° C | 69% | 1015.4 hPa | - | - | - | - |
| 1788195019 | 22.22° C | 69% | 1015.4 hPa | - | - | - | - |
| 1788170259 | 26.67° C | 50% | 1014.8 hPa | - | - | - | - |
* Rain since midnight (hover to see other rain measurements)
** Current wind speed in m/s (hover to see current wind gust speed)